sensor_id;sensor_type;location;lat;lon;timestamp;P1;durP1;ratioP1;P2;durP2;ratioP2
18657;SDS011;9458;50.942;5.074;2022-08-05T00:01:00;5.93;;;5.32;;
18657;SDS011;9458;50.942;5.074;2022-08-05T00:03:29;6.50;;;5.43;;
18657;SDS011;9458;50.942;5.074;2022-08-05T00:05:56;7.35;;;5.40;;
18657;SDS011;9458;50.942;5.074;2022-08-05T00:08:24;5.32;;;4.82;;
18657;SDS011;9458;50.942;5.074;2022-08-05T00:10:52;7.60;;;4.97;;
18657;SDS011;9458;50.942;5.074;2022-08-05T00:13:32;7.68;;;5.03;;
18657;SDS011;9458;50.942;5.074;2022-08-05T00:16:02;7.93;;;4.93;;
18657;SDS011;9458;50.942;5.074;2022-08-05T00:18:37;5.63;;;4.95;;
18657;SDS011;9458;50.942;5.074;2022-08-05T00:21:15;7.15;;;4.43;;
18657;SDS011;9458;50.942;5.074;2022-08-05T00:23:45;5.25;;;4.32;;
18657;SDS011;9458;50.942;5.074;2022-08-05T00:26:16;4.68;;;4.28;;
18657;SDS011;9458;50.942;5.074;2022-08-05T00:28:45;4.90;;;4.35;;
18657;SDS011;9458;50.942;5.074;2022-08-05T00:31:13;4.88;;;4.18;;
18657;SDS011;9458;50.942;5.074;2022-08-05T00:33:42;6.07;;;4.13;;
18657;SDS011;9458;50.942;5.074;2022-08-05T00:36:09;5.63;;;4.50;;
18657;SDS011;9458;50.942;5.074;2022-08-05T00:38:37;6.40;;;4.72;;
18657;SDS011;9458;50.942;5.074;2022-08-05T00:41:05;7.07;;;4.78;;
18657;SDS011;9458;50.942;5.074;2022-08-05T00:43:33;4.90;;;4.10;;
18657;SDS011;9458;50.942;5.074;2022-08-05T00:46:03;5.97;;;5.00;;
18657;SDS011;9458;50.942;5.074;2022-08-05T00:48:31;5.75;;;4.82;;
18657;SDS011;9458;50.942;5.074;2022-08-05T00:50:58;6.53;;;4.50;;
18657;SDS011;9458;50.942;5.074;2022-08-05T00:53:25;7.00;;;4.63;;
18657;SDS011;9458;50.942;5.074;2022-08-05T00:55:53;7.28;;;4.57;;
18657;SDS011;9458;50.942;5.074;2022-08-05T00:58:21;4.40;;;4.00;;
18657;SDS011;9458;50.942;5.074;2022-08-05T01:00:49;7.22;;;4.00;;
18657;SDS011;9458;50.942;5.074;2022-08-05T01:03:18;5.40;;;4.30;;
18657;SDS011;9458;50.942;5.074;2022-08-05T01:05:46;5.13;;;3.85;;
18657;SDS011;9458;50.942;5.074;2022-08-05T01:08:13;4.68;;;4.28;;
18657;SDS011;9458;50.942;5.074;2022-08-05T01:10:42;5.05;;;4.30;;
18657;SDS011;9458;50.942;5.074;2022-08-05T01:13:15;5.68;;;4.32;;
18657;SDS011;9458;50.942;5.074;2022-08-05T01:15:49;4.97;;;4.47;;
18657;SDS011;9458;50.942;5.074;2022-08-05T01:18:27;5.00;;;4.60;;
18657;SDS011;9458;50.942;5.074;2022-08-05T01:21:00;5.38;;;4.88;;
18657;SDS011;9458;50.942;5.074;2022-08-05T01:23:39;5.32;;;4.70;;
18657;SDS011;9458;50.942;5.074;2022-08-05T01:26:31;5.07;;;4.63;;
18657;SDS011;9458;50.942;5.074;2022-08-05T01:29:07;10.10;;;5.10;;
18657;SDS011;9458;50.942;5.074;2022-08-05T01:31:41;7.10;;;4.65;;
18657;SDS011;9458;50.942;5.074;2022-08-05T01:34:12;5.30;;;4.47;;
18657;SDS011;9458;50.942;5.074;2022-08-05T01:36:45;7.93;;;5.50;;
18657;SDS011;9458;50.942;5.074;2022-08-05T01:39:16;9.00;;;5.38;;
18657;SDS011;9458;50.942;5.074;2022-08-05T01:41:45;7.53;;;4.63;;
18657;SDS011;9458;50.942;5.074;2022-08-05T01:44:16;6.03;;;4.75;;
18657;SDS011;9458;50.942;5.074;2022-08-05T01:46:45;6.30;;;4.68;;
18657;SDS011;9458;50.942;5.074;2022-08-05T01:49:15;7.03;;;4.80;;
18657;SDS011;9458;50.942;5.074;2022-08-05T01:51:44;5.85;;;5.20;;
18657;SDS011;9458;50.942;5.074;2022-08-05T01:54:14;7.15;;;5.55;;
18657;SDS011;9458;50.942;5.074;2022-08-05T01:56:49;7.30;;;5.72;;
18657;SDS011;9458;50.942;5.074;2022-08-05T01:59:19;8.82;;;6.45;;
18657;SDS011;9458;50.942;5.074;2022-08-05T02:01:49;7.85;;;5.68;;
18657;SDS011;9458;50.942;5.074;2022-08-05T02:04:19;6.15;;;5.43;;
18657;SDS011;9458;50.942;5.074;2022-08-05T02:06:48;7.15;;;5.57;;
18657;SDS011;9458;50.942;5.074;2022-08-05T02:09:16;6.07;;;5.25;;
18657;SDS011;9458;50.942;5.074;2022-08-05T02:11:45;7.68;;;5.80;;
18657;SDS011;9458;50.942;5.074;2022-08-05T02:14:18;6.88;;;5.72;;
18657;SDS011;9458;50.942;5.074;2022-08-05T02:16:53;7.38;;;6.10;;
18657;SDS011;9458;50.942;5.074;2022-08-05T02:19:28;6.85;;;5.78;;
18657;SDS011;9458;50.942;5.074;2022-08-05T02:22:07;6.20;;;5.63;;
18657;SDS011;9458;50.942;5.074;2022-08-05T02:24:39;7.90;;;6.05;;
18657;SDS011;9458;50.942;5.074;2022-08-05T02:27:10;8.20;;;5.72;;
18657;SDS011;9458;50.942;5.074;2022-08-05T02:29:42;9.07;;;6.28;;
18657;SDS011;9458;50.942;5.074;2022-08-05T02:32:13;6.45;;;5.60;;
18657;SDS011;9458;50.942;5.074;2022-08-05T02:34:44;7.85;;;6.40;;
18657;SDS011;9458;50.942;5.074;2022-08-05T02:37:13;10.07;;;6.95;;
18657;SDS011;9458;50.942;5.074;2022-08-05T02:39:42;6.88;;;6.18;;
18657;SDS011;9458;50.942;5.074;2022-08-05T02:42:11;8.38;;;6.43;;
18657;SDS011;9458;50.942;5.074;2022-08-05T02:44:39;9.88;;;6.60;;
18657;SDS011;9458;50.942;5.074;2022-08-05T02:47:10;8.18;;;6.97;;
18657;SDS011;9458;50.942;5.074;2022-08-05T02:49:40;12.20;;;6.68;;
18657;SDS011;9458;50.942;5.074;2022-08-05T02:52:14;10.63;;;7.35;;
18657;SDS011;9458;50.942;5.074;2022-08-05T02:54:47;7.97;;;6.85;;
18657;SDS011;9458;50.942;5.074;2022-08-05T02:57:18;10.15;;;6.32;;
18657;SDS011;9458;50.942;5.074;2022-08-05T02:59:49;8.32;;;7.10;;
18657;SDS011;9458;50.942;5.074;2022-08-05T03:02:19;11.38;;;6.82;;
18657;SDS011;9458;50.942;5.074;2022-08-05T03:04:54;10.30;;;6.85;;
18657;SDS011;9458;50.942;5.074;2022-08-05T03:07:23;9.43;;;6.60;;
18657;SDS011;9458;50.942;5.074;2022-08-05T03:09:53;7.75;;;6.70;;
18657;SDS011;9458;50.942;5.074;2022-08-05T03:12:28;11.35;;;8.27;;
18657;SDS011;9458;50.942;5.074;2022-08-05T03:14:59;7.60;;;6.80;;
18657;SDS011;9458;50.942;5.074;2022-08-05T03:17:27;10.23;;;7.05;;
18657;SDS011;9458;50.942;5.074;2022-08-05T03:19:55;9.15;;;7.22;;
18657;SDS011;9458;50.942;5.074;2022-08-05T03:22:23;10.48;;;7.15;;
18657;SDS011;9458;50.942;5.074;2022-08-05T03:24:51;9.43;;;7.30;;
18657;SDS011;9458;50.942;5.074;2022-08-05T03:27:18;7.95;;;7.20;;
18657;SDS011;9458;50.942;5.074;2022-08-05T03:29:46;8.73;;;7.38;;
18657;SDS011;9458;50.942;5.074;2022-08-05T03:32:16;8.43;;;7.53;;
18657;SDS011;9458;50.942;5.074;2022-08-05T03:34:45;8.98;;;7.35;;
18657;SDS011;9458;50.942;5.074;2022-08-05T03:37:13;13.65;;;7.30;;
18657;SDS011;9458;50.942;5.074;2022-08-05T03:39:50;10.07;;;7.35;;
18657;SDS011;9458;50.942;5.074;2022-08-05T03:42:18;13.63;;;7.28;;
18657;SDS011;9458;50.942;5.074;2022-08-05T03:44:45;7.65;;;6.68;;
18657;SDS011;9458;50.942;5.074;2022-08-05T03:47:13;9.93;;;7.47;;
18657;SDS011;9458;50.942;5.074;2022-08-05T03:49:42;8.10;;;7.30;;
18657;SDS011;9458;50.942;5.074;2022-08-05T03:52:10;8.40;;;7.25;;
18657;SDS011;9458;50.942;5.074;2022-08-05T03:54:44;10.30;;;7.03;;
18657;SDS011;9458;50.942;5.074;2022-08-05T03:57:16;10.60;;;7.10;;
18657;SDS011;9458;50.942;5.074;2022-08-05T03:59:47;8.27;;;7.47;;
18657;SDS011;9458;50.942;5.074;2022-08-05T04:02:17;9.23;;;7.18;;
18657;SDS011;9458;50.942;5.074;2022-08-05T04:04:49;8.05;;;6.85;;
18657;SDS011;9458;50.942;5.074;2022-08-05T04:07:18;10.77;;;7.00;;
18657;SDS011;9458;50.942;5.074;2022-08-05T04:09:46;9.07;;;7.50;;
18657;SDS011;9458;50.942;5.074;2022-08-05T04:12:13;12.88;;;7.28;;
18657;SDS011;9458;50.942;5.074;2022-08-05T04:14:41;8.35;;;7.45;;
18657;SDS011;9458;50.942;5.074;2022-08-05T04:17:09;8.32;;;7.47;;
18657;SDS011;9458;50.942;5.074;2022-08-05T04:19:40;8.30;;;7.40;;
18657;SDS011;9458;50.942;5.074;2022-08-05T04:22:10;7.93;;;7.13;;
18657;SDS011;9458;50.942;5.074;2022-08-05T04:24:38;8.35;;;6.95;;
18657;SDS011;9458;50.942;5.074;2022-08-05T04:27:06;11.00;;;7.03;;
18657;SDS011;9458;50.942;5.074;2022-08-05T04:29:34;12.63;;;7.45;;
18657;SDS011;9458;50.942;5.074;2022-08-05T04:32:02;8.77;;;7.40;;
18657;SDS011;9458;50.942;5.074;2022-08-05T04:34:30;8.73;;;7.03;;
18657;SDS011;9458;50.942;5.074;2022-08-05T04:36:58;9.95;;;7.30;;
18657;SDS011;9458;50.942;5.074;2022-08-05T04:39:27;8.65;;;6.72;;
18657;SDS011;9458;50.942;5.074;2022-08-05T04:41:54;9.05;;;7.35;;
18657;SDS011;9458;50.942;5.074;2022-08-05T04:44:23;10.30;;;7.05;;
18657;SDS011;9458;50.942;5.074;2022-08-05T04:46:50;9.77;;;7.47;;
18657;SDS011;9458;50.942;5.074;2022-08-05T04:49:18;8.93;;;7.28;;
18657;SDS011;9458;50.942;5.074;2022-08-05T04:51:45;10.00;;;7.65;;
18657;SDS011;9458;50.942;5.074;2022-08-05T04:54:13;8.30;;;7.13;;
18657;SDS011;9458;50.942;5.074;2022-08-05T04:56:41;9.65;;;8.02;;
18657;SDS011;9458;50.942;5.074;2022-08-05T04:59:09;9.40;;;7.97;;
18657;SDS011;9458;50.942;5.074;2022-08-05T05:01:37;11.82;;;7.65;;
18657;SDS011;9458;50.942;5.074;2022-08-05T05:04:04;10.80;;;7.75;;
18657;SDS011;9458;50.942;5.074;2022-08-05T05:06:32;9.07;;;7.90;;
18657;SDS011;9458;50.942;5.074;2022-08-05T05:08:59;11.45;;;7.97;;
18657;SDS011;9458;50.942;5.074;2022-08-05T05:11:26;10.27;;;8.05;;
18657;SDS011;9458;50.942;5.074;2022-08-05T05:13:55;12.63;;;7.85;;
18657;SDS011;9458;50.942;5.074;2022-08-05T05:16:23;11.15;;;8.40;;
18657;SDS011;9458;50.942;5.074;2022-08-05T05:18:50;8.02;;;7.22;;
18657;SDS011;9458;50.942;5.074;2022-08-05T05:21:18;9.50;;;7.97;;
18657;SDS011;9458;50.942;5.074;2022-08-05T05:23:45;9.65;;;7.45;;
18657;SDS011;9458;50.942;5.074;2022-08-05T05:26:13;10.02;;;8.25;;
18657;SDS011;9458;50.942;5.074;2022-08-05T05:28:41;10.85;;;7.90;;
18657;SDS011;9458;50.942;5.074;2022-08-05T05:31:10;12.00;;;8.18;;
18657;SDS011;9458;50.942;5.074;2022-08-05T05:33:37;9.90;;;7.78;;
18657;SDS011;9458;50.942;5.074;2022-08-05T05:36:05;9.82;;;8.23;;
18657;SDS011;9458;50.942;5.074;2022-08-05T05:38:33;12.98;;;8.02;;
18657;SDS011;9458;50.942;5.074;2022-08-05T05:41:00;10.60;;;7.95;;
18657;SDS011;9458;50.942;5.074;2022-08-05T05:43:28;9.80;;;8.80;;
18657;SDS011;9458;50.942;5.074;2022-08-05T05:45:55;9.27;;;7.40;;
18657;SDS011;9458;50.942;5.074;2022-08-05T05:48:24;9.70;;;7.88;;
18657;SDS011;9458;50.942;5.074;2022-08-05T05:50:51;9.23;;;7.75;;
18657;SDS011;9458;50.942;5.074;2022-08-05T05:53:19;10.00;;;7.93;;
18657;SDS011;9458;50.942;5.074;2022-08-05T05:55:46;8.65;;;7.68;;
18657;SDS011;9458;50.942;5.074;2022-08-05T05:58:13;10.15;;;9.13;;
18657;SDS011;9458;50.942;5.074;2022-08-05T06:00:41;8.68;;;7.55;;
18657;SDS011;9458;50.942;5.074;2022-08-05T06:03:08;9.85;;;8.77;;
18657;SDS011;9458;50.942;5.074;2022-08-05T06:05:39;9.23;;;8.05;;
18657;SDS011;9458;50.942;5.074;2022-08-05T06:08:07;9.88;;;8.88;;
18657;SDS011;9458;50.942;5.074;2022-08-05T06:10:36;10.40;;;8.10;;
18657;SDS011;9458;50.942;5.074;2022-08-05T06:13:04;9.52;;;7.80;;
18657;SDS011;9458;50.942;5.074;2022-08-05T06:15:31;8.77;;;7.75;;
18657;SDS011;9458;50.942;5.074;2022-08-05T06:17:59;8.88;;;7.97;;
18657;SDS011;9458;50.942;5.074;2022-08-05T06:20:28;12.07;;;8.35;;
18657;SDS011;9458;50.942;5.074;2022-08-05T06:22:57;8.88;;;7.85;;
18657;SDS011;9458;50.942;5.074;2022-08-05T06:25:24;10.85;;;8.23;;
18657;SDS011;9458;50.942;5.074;2022-08-05T06:27:52;12.52;;;8.13;;
18657;SDS011;9458;50.942;5.074;2022-08-05T06:30:19;11.60;;;8.85;;
18657;SDS011;9458;50.942;5.074;2022-08-05T06:32:51;10.98;;;7.72;;
18657;SDS011;9458;50.942;5.074;2022-08-05T06:35:18;12.20;;;8.57;;
18657;SDS011;9458;50.942;5.074;2022-08-05T06:37:46;9.73;;;7.85;;
18657;SDS011;9458;50.942;5.074;2022-08-05T06:40:15;10.93;;;7.95;;
18657;SDS011;9458;50.942;5.074;2022-08-05T06:42:43;8.60;;;7.72;;
18657;SDS011;9458;50.942;5.074;2022-08-05T06:45:10;11.15;;;7.95;;
18657;SDS011;9458;50.942;5.074;2022-08-05T06:47:38;9.20;;;7.88;;
18657;SDS011;9458;50.942;5.074;2022-08-05T06:50:06;10.52;;;8.20;;
18657;SDS011;9458;50.942;5.074;2022-08-05T06:52:34;8.80;;;8.00;;
18657;SDS011;9458;50.942;5.074;2022-08-05T06:55:02;12.48;;;8.07;;
18657;SDS011;9458;50.942;5.074;2022-08-05T06:57:32;10.60;;;7.63;;
18657;SDS011;9458;50.942;5.074;2022-08-05T06:59:59;8.18;;;7.38;;
18657;SDS011;9458;50.942;5.074;2022-08-05T07:02:28;10.68;;;8.15;;
18657;SDS011;9458;50.942;5.074;2022-08-05T07:04:55;9.77;;;7.63;;
18657;SDS011;9458;50.942;5.074;2022-08-05T07:07:23;9.43;;;7.45;;
18657;SDS011;9458;50.942;5.074;2022-08-05T07:09:52;11.35;;;7.53;;
18657;SDS011;9458;50.942;5.074;2022-08-05T07:12:20;11.48;;;8.30;;
18657;SDS011;9458;50.942;5.074;2022-08-05T07:15:07;11.60;;;7.93;;
18657;SDS011;9458;50.942;5.074;2022-08-05T07:17:52;10.35;;;7.97;;
18657;SDS011;9458;50.942;5.074;2022-08-05T07:20:20;9.80;;;8.45;;
18657;SDS011;9458;50.942;5.074;2022-08-05T07:22:48;10.43;;;8.10;;
18657;SDS011;9458;50.942;5.074;2022-08-05T07:25:15;11.77;;;8.35;;
18657;SDS011;9458;50.942;5.074;2022-08-05T07:27:43;9.95;;;7.82;;
18657;SDS011;9458;50.942;5.074;2022-08-05T07:30:12;9.50;;;8.40;;
18657;SDS011;9458;50.942;5.074;2022-08-05T07:32:42;10.65;;;8.38;;
18657;SDS011;9458;50.942;5.074;2022-08-05T07:35:09;10.60;;;8.95;;
18657;SDS011;9458;50.942;5.074;2022-08-05T07:37:39;9.18;;;8.00;;
18657;SDS011;9458;50.942;5.074;2022-08-05T07:40:07;11.93;;;8.13;;
18657;SDS011;9458;50.942;5.074;2022-08-05T07:42:36;9.80;;;7.85;;
18657;SDS011;9458;50.942;5.074;2022-08-05T07:45:03;10.30;;;8.30;;
18657;SDS011;9458;50.942;5.074;2022-08-05T07:47:33;9.88;;;8.52;;
18657;SDS011;9458;50.942;5.074;2022-08-05T07:50:01;9.20;;;8.30;;
18657;SDS011;9458;50.942;5.074;2022-08-05T07:52:28;8.85;;;7.88;;
18657;SDS011;9458;50.942;5.074;2022-08-05T07:54:55;10.55;;;8.55;;
18657;SDS011;9458;50.942;5.074;2022-08-05T07:57:23;8.82;;;8.05;;
18657;SDS011;9458;50.942;5.074;2022-08-05T07:59:50;7.88;;;7.05;;
18657;SDS011;9458;50.942;5.074;2022-08-05T08:02:22;9.23;;;7.35;;
18657;SDS011;9458;50.942;5.074;2022-08-05T08:04:52;7.97;;;6.93;;
18657;SDS011;9458;50.942;5.074;2022-08-05T08:07:19;8.57;;;7.57;;
18657;SDS011;9458;50.942;5.074;2022-08-05T08:09:47;7.68;;;6.93;;
18657;SDS011;9458;50.942;5.074;2022-08-05T08:12:15;11.43;;;6.55;;
18657;SDS011;9458;50.942;5.074;2022-08-05T08:14:43;8.05;;;6.32;;
18657;SDS011;9458;50.942;5.074;2022-08-05T08:17:10;6.40;;;5.80;;
18657;SDS011;9458;50.942;5.074;2022-08-05T08:19:38;8.52;;;6.00;;
18657;SDS011;9458;50.942;5.074;2022-08-05T08:22:08;6.00;;;5.47;;
18657;SDS011;9458;50.942;5.074;2022-08-05T08:24:36;6.53;;;5.70;;
18657;SDS011;9458;50.942;5.074;2022-08-05T08:27:04;8.68;;;6.13;;
18657;SDS011;9458;50.942;5.074;2022-08-05T08:29:32;7.10;;;6.35;;
18657;SDS011;9458;50.942;5.074;2022-08-05T08:32:00;7.03;;;6.00;;
18657;SDS011;9458;50.942;5.074;2022-08-05T08:34:28;6.72;;;5.68;;
18657;SDS011;9458;50.942;5.074;2022-08-05T08:36:55;6.90;;;6.30;;
18657;SDS011;9458;50.942;5.074;2022-08-05T08:39:25;6.80;;;6.13;;
18657;SDS011;9458;50.942;5.074;2022-08-05T08:41:53;7.13;;;6.13;;
18657;SDS011;9458;50.942;5.074;2022-08-05T08:44:22;6.80;;;6.07;;
18657;SDS011;9458;50.942;5.074;2022-08-05T08:46:50;7.03;;;6.32;;
18657;SDS011;9458;50.942;5.074;2022-08-05T08:49:18;7.05;;;6.32;;
18657;SDS011;9458;50.942;5.074;2022-08-05T08:51:57;7.88;;;6.88;;
18657;SDS011;9458;50.942;5.074;2022-08-05T08:54:32;7.55;;;6.40;;
18657;SDS011;9458;50.942;5.074;2022-08-05T08:57:01;8.63;;;5.90;;
18657;SDS011;9458;50.942;5.074;2022-08-05T08:59:30;6.03;;;5.03;;
18657;SDS011;9458;50.942;5.074;2022-08-05T09:01:58;4.75;;;4.35;;
18657;SDS011;9458;50.942;5.074;2022-08-05T09:04:26;5.72;;;3.88;;
18657;SDS011;9458;50.942;5.074;2022-08-05T09:06:54;7.57;;;4.07;;
18657;SDS011;9458;50.942;5.074;2022-08-05T09:09:21;6.35;;;4.07;;
18657;SDS011;9458;50.942;5.074;2022-08-05T09:11:52;4.70;;;3.65;;
18657;SDS011;9458;50.942;5.074;2022-08-05T09:14:20;4.18;;;3.15;;
18657;SDS011;9458;50.942;5.074;2022-08-05T09:16:48;3.53;;;2.97;;
18657;SDS011;9458;50.942;5.074;2022-08-05T09:19:16;3.40;;;2.53;;
18657;SDS011;9458;50.942;5.074;2022-08-05T09:21:45;5.22;;;2.97;;
18657;SDS011;9458;50.942;5.074;2022-08-05T09:24:12;3.80;;;2.80;;
18657;SDS011;9458;50.942;5.074;2022-08-05T09:26:40;7.03;;;2.75;;
18657;SDS011;9458;50.942;5.074;2022-08-05T09:29:09;2.72;;;2.50;;
18657;SDS011;9458;50.942;5.074;2022-08-05T09:31:36;2.78;;;2.53;;
18657;SDS011;9458;50.942;5.074;2022-08-05T09:34:08;3.92;;;2.70;;
18657;SDS011;9458;50.942;5.074;2022-08-05T09:36:40;3.47;;;3.13;;
18657;SDS011;9458;50.942;5.074;2022-08-05T09:39:10;3.53;;;2.20;;
18657;SDS011;9458;50.942;5.074;2022-08-05T09:41:54;3.88;;;2.55;;
18657;SDS011;9458;50.942;5.074;2022-08-05T09:44:45;4.18;;;2.25;;
18657;SDS011;9458;50.942;5.074;2022-08-05T09:47:14;3.72;;;2.08;;
18657;SDS011;9458;50.942;5.074;2022-08-05T09:49:44;3.40;;;1.98;;
18657;SDS011;9458;50.942;5.074;2022-08-05T09:52:24;2.70;;;2.00;;
18657;SDS011;9458;50.942;5.074;2022-08-05T09:55:02;2.35;;;2.00;;
18657;SDS011;9458;50.942;5.074;2022-08-05T09:57:32;2.10;;;1.90;;
18657;SDS011;9458;50.942;5.074;2022-08-05T10:02:49;2.33;;;1.80;;
18657;SDS011;9458;50.942;5.074;2022-08-05T10:05:22;2.53;;;2.03;;
18657;SDS011;9458;50.942;5.074;2022-08-05T10:07:51;3.33;;;2.58;;
18657;SDS011;9458;50.942;5.074;2022-08-05T10:10:22;4.45;;;1.80;;
18657;SDS011;9458;50.942;5.074;2022-08-05T10:12:57;2.67;;;1.70;;
18657;SDS011;9458;50.942;5.074;2022-08-05T10:15:29;3.50;;;2.05;;
18657;SDS011;9458;50.942;5.074;2022-08-05T10:18:05;1.90;;;1.80;;
18657;SDS011;9458;50.942;5.074;2022-08-05T10:20:52;3.25;;;2.22;;
18657;SDS011;9458;50.942;5.074;2022-08-05T10:23:22;1.88;;;1.50;;
18657;SDS011;9458;50.942;5.074;2022-08-05T10:25:52;1.95;;;1.80;;
18657;SDS011;9458;50.942;5.074;2022-08-05T10:28:21;2.20;;;1.70;;
18657;SDS011;9458;50.942;5.074;2022-08-05T10:30:51;3.28;;;2.28;;
18657;SDS011;9458;50.942;5.074;2022-08-05T10:33:19;2.58;;;2.35;;
18657;SDS011;9458;50.942;5.074;2022-08-05T10:35:50;5.88;;;2.60;;
18657;SDS011;9458;50.942;5.074;2022-08-05T10:38:19;3.35;;;2.58;;
18657;SDS011;9458;50.942;5.074;2022-08-05T10:40:51;3.65;;;2.67;;
18657;SDS011;9458;50.942;5.074;2022-08-05T10:43:30;4.35;;;2.70;;
18657;SDS011;9458;50.942;5.074;2022-08-05T10:46:10;2.58;;;2.30;;
18657;SDS011;9458;50.942;5.074;2022-08-05T10:48:40;3.40;;;2.20;;
18657;SDS011;9458;50.942;5.074;2022-08-05T10:51:10;2.80;;;2.50;;
18657;SDS011;9458;50.942;5.074;2022-08-05T10:53:41;4.90;;;3.00;;
18657;SDS011;9458;50.942;5.074;2022-08-05T10:56:12;3.58;;;2.80;;
18657;SDS011;9458;50.942;5.074;2022-08-05T10:58:49;3.30;;;2.50;;
18657;SDS011;9458;50.942;5.074;2022-08-05T11:01:33;3.22;;;2.53;;
18657;SDS011;9458;50.942;5.074;2022-08-05T11:04:06;2.30;;;2.10;;
18657;SDS011;9458;50.942;5.074;2022-08-05T11:09:41;2.30;;;2.10;;
18657;SDS011;9458;50.942;5.074;2022-08-05T11:15:16;2.85;;;2.20;;
18657;SDS011;9458;50.942;5.074;2022-08-05T11:17:47;2.50;;;2.30;;
18657;SDS011;9458;50.942;5.074;2022-08-05T11:20:32;2.35;;;2.15;;
18657;SDS011;9458;50.942;5.074;2022-08-05T11:26:10;2.55;;;1.67;;
18657;SDS011;9458;50.942;5.074;2022-08-05T11:28:47;1.90;;;1.30;;
18657;SDS011;9458;50.942;5.074;2022-08-05T11:31:19;4.95;;;1.40;;
18657;SDS011;9458;50.942;5.074;2022-08-05T11:33:56;2.05;;;1.42;;
18657;SDS011;9458;50.942;5.074;2022-08-05T11:36:42;2.88;;;1.55;;
18657;SDS011;9458;50.942;5.074;2022-08-05T11:39:12;3.28;;;1.52;;
18657;SDS011;9458;50.942;5.074;2022-08-05T11:41:41;1.73;;;1.25;;
18657;SDS011;9458;50.942;5.074;2022-08-05T11:44:15;2.05;;;1.50;;
18657;SDS011;9458;50.942;5.074;2022-08-05T11:46:46;1.33;;;1.00;;
18657;SDS011;9458;50.942;5.074;2022-08-05T11:49:17;1.48;;;1.00;;
18657;SDS011;9458;50.942;5.074;2022-08-05T11:51:45;1.20;;;1.02;;
18657;SDS011;9458;50.942;5.074;2022-08-05T11:54:20;1.85;;;1.27;;
18657;SDS011;9458;50.942;5.074;2022-08-05T11:56:49;1.60;;;1.10;;
18657;SDS011;9458;50.942;5.074;2022-08-05T11:59:18;4.57;;;1.85;;
18657;SDS011;9458;50.942;5.074;2022-08-05T12:01:54;2.05;;;1.20;;
18657;SDS011;9458;50.942;5.074;2022-08-05T12:04:25;2.05;;;1.20;;
18657;SDS011;9458;50.942;5.074;2022-08-05T12:06:57;2.28;;;1.20;;
18657;SDS011;9458;50.942;5.074;2022-08-05T12:09:26;2.22;;;1.00;;
18657;SDS011;9458;50.942;5.074;2022-08-05T12:11:55;3.00;;;1.58;;
18657;SDS011;9458;50.942;5.074;2022-08-05T12:14:24;2.30;;;1.35;;
18657;SDS011;9458;50.942;5.074;2022-08-05T12:17:05;1.52;;;1.30;;
18657;SDS011;9458;50.942;5.074;2022-08-05T12:19:43;4.30;;;1.60;;
18657;SDS011;9458;50.942;5.074;2022-08-05T12:22:12;1.50;;;1.40;;
18657;SDS011;9458;50.942;5.074;2022-08-05T12:24:40;2.80;;;1.50;;
18657;SDS011;9458;50.942;5.074;2022-08-05T12:27:09;3.78;;;1.92;;
18657;SDS011;9458;50.942;5.074;2022-08-05T12:29:44;1.73;;;1.60;;
18657;SDS011;9458;50.942;5.074;2022-08-05T12:32:12;2.25;;;1.50;;
18657;SDS011;9458;50.942;5.074;2022-08-05T12:34:40;2.85;;;1.55;;
18657;SDS011;9458;50.942;5.074;2022-08-05T12:37:10;2.63;;;1.30;;
18657;SDS011;9458;50.942;5.074;2022-08-05T12:39:38;1.38;;;1.27;;
18657;SDS011;9458;50.942;5.074;2022-08-05T12:42:07;1.20;;;1.05;;
18657;SDS011;9458;50.942;5.074;2022-08-05T12:44:38;1.30;;;1.10;;
18657;SDS011;9458;50.942;5.074;2022-08-05T12:47:07;0.98;;;0.98;;
18657;SDS011;9458;50.942;5.074;2022-08-05T12:49:38;1.73;;;1.00;;
18657;SDS011;9458;50.942;5.074;2022-08-05T12:52:17;2.58;;;1.80;;
18657;SDS011;9458;50.942;5.074;2022-08-05T12:54:46;4.00;;;1.38;;
18657;SDS011;9458;50.942;5.074;2022-08-05T12:57:15;2.28;;;1.20;;
18657;SDS011;9458;50.942;5.074;2022-08-05T12:59:45;1.42;;;1.10;;
18657;SDS011;9458;50.942;5.074;2022-08-05T13:02:15;3.92;;;1.60;;
18657;SDS011;9458;50.942;5.074;2022-08-05T13:04:48;3.08;;;1.20;;
18657;SDS011;9458;50.942;5.074;2022-08-05T13:07:16;3.25;;;1.40;;
18657;SDS011;9458;50.942;5.074;2022-08-05T13:09:49;3.55;;;1.27;;
18657;SDS011;9458;50.942;5.074;2022-08-05T13:12:19;2.35;;;1.10;;
18657;SDS011;9458;50.942;5.074;2022-08-05T13:14:48;2.45;;;1.40;;
18657;SDS011;9458;50.942;5.074;2022-08-05T13:17:18;3.00;;;1.60;;
18657;SDS011;9458;50.942;5.074;2022-08-05T13:20:02;3.30;;;1.10;;
18657;SDS011;9458;50.942;5.074;2022-08-05T13:22:31;1.75;;;1.33;;
18657;SDS011;9458;50.942;5.074;2022-08-05T13:25:00;2.50;;;1.13;;
18657;SDS011;9458;50.942;5.074;2022-08-05T13:27:30;1.55;;;1.20;;
18657;SDS011;9458;50.942;5.074;2022-08-05T13:29:59;2.50;;;1.35;;
18657;SDS011;9458;50.942;5.074;2022-08-05T13:32:27;2.33;;;1.10;;
18657;SDS011;9458;50.942;5.074;2022-08-05T13:34:55;3.05;;;1.38;;
18657;SDS011;9458;50.942;5.074;2022-08-05T13:37:24;2.63;;;1.30;;
18657;SDS011;9458;50.942;5.074;2022-08-05T13:39:51;2.67;;;1.20;;
18657;SDS011;9458;50.942;5.074;2022-08-05T13:42:19;2.53;;;1.35;;
18657;SDS011;9458;50.942;5.074;2022-08-05T13:44:49;3.50;;;1.33;;
18657;SDS011;9458;50.942;5.074;2022-08-05T13:47:18;1.50;;;1.08;;
18657;SDS011;9458;50.942;5.074;2022-08-05T13:49:46;1.65;;;0.93;;
18657;SDS011;9458;50.942;5.074;2022-08-05T13:52:15;1.38;;;1.00;;
18657;SDS011;9458;50.942;5.074;2022-08-05T13:54:45;0.90;;;0.90;;
18657;SDS011;9458;50.942;5.074;2022-08-05T13:57:13;4.45;;;1.17;;
18657;SDS011;9458;50.942;5.074;2022-08-05T13:59:41;1.08;;;0.90;;
18657;SDS011;9458;50.942;5.074;2022-08-05T14:02:10;3.20;;;0.98;;
18657;SDS011;9458;50.942;5.074;2022-08-05T14:04:39;0.80;;;0.70;;
18657;SDS011;9458;50.942;5.074;2022-08-05T14:07:26;0.80;;;0.80;;
18657;SDS011;9458;50.942;5.074;2022-08-05T14:09:56;1.90;;;0.73;;
18657;SDS011;9458;50.942;5.074;2022-08-05T14:12:26;1.52;;;0.77;;
18657;SDS011;9458;50.942;5.074;2022-08-05T14:14:55;1.13;;;0.80;;
18657;SDS011;9458;50.942;5.074;2022-08-05T14:17:24;0.68;;;0.63;;
18657;SDS011;9458;50.942;5.074;2022-08-05T14:19:51;3.25;;;1.02;;
18657;SDS011;9458;50.942;5.074;2022-08-05T14:22:20;1.55;;;0.80;;
18657;SDS011;9458;50.942;5.074;2022-08-05T14:24:48;2.42;;;0.77;;
18657;SDS011;9458;50.942;5.074;2022-08-05T14:27:17;1.75;;;0.80;;
18657;SDS011;9458;50.942;5.074;2022-08-05T14:29:44;0.63;;;0.60;;
18657;SDS011;9458;50.942;5.074;2022-08-05T14:32:12;2.78;;;0.80;;
18657;SDS011;9458;50.942;5.074;2022-08-05T14:34:39;0.85;;;0.77;;
18657;SDS011;9458;50.942;5.074;2022-08-05T14:37:07;1.20;;;0.80;;
18657;SDS011;9458;50.942;5.074;2022-08-05T14:39:35;0.80;;;0.80;;
18657;SDS011;9458;50.942;5.074;2022-08-05T14:42:02;1.02;;;0.73;;
18657;SDS011;9458;50.942;5.074;2022-08-05T14:44:31;0.80;;;0.70;;
18657;SDS011;9458;50.942;5.074;2022-08-05T14:46:58;0.98;;;0.60;;
18657;SDS011;9458;50.942;5.074;2022-08-05T14:49:25;0.95;;;0.63;;
18657;SDS011;9458;50.942;5.074;2022-08-05T14:51:53;0.82;;;0.63;;
18657;SDS011;9458;50.942;5.074;2022-08-05T14:54:20;0.68;;;0.60;;
18657;SDS011;9458;50.942;5.074;2022-08-05T14:56:48;2.88;;;0.60;;
18657;SDS011;9458;50.942;5.074;2022-08-05T14:59:15;0.60;;;0.40;;
18657;SDS011;9458;50.942;5.074;2022-08-05T15:01:47;0.70;;;0.63;;
18657;SDS011;9458;50.942;5.074;2022-08-05T15:04:16;1.50;;;0.60;;
18657;SDS011;9458;50.942;5.074;2022-08-05T15:06:45;0.70;;;0.55;;
18657;SDS011;9458;50.942;5.074;2022-08-05T15:09:13;3.80;;;0.63;;
18657;SDS011;9458;50.942;5.074;2022-08-05T15:11:40;0.70;;;0.60;;
18657;SDS011;9458;50.942;5.074;2022-08-05T15:14:08;0.75;;;0.60;;
18657;SDS011;9458;50.942;5.074;2022-08-05T15:16:35;0.60;;;0.60;;
18657;SDS011;9458;50.942;5.074;2022-08-05T15:19:05;3.05;;;0.70;;
18657;SDS011;9458;50.942;5.074;2022-08-05T15:21:32;1.35;;;0.85;;
18657;SDS011;9458;50.942;5.074;2022-08-05T15:24:00;0.60;;;0.60;;
18657;SDS011;9458;50.942;5.074;2022-08-05T15:26:27;0.55;;;0.55;;
18657;SDS011;9458;50.942;5.074;2022-08-05T15:28:54;1.67;;;0.60;;